createdAt,value
2017-11-11T00:00:27.302Z,0
2017-11-11T00:01:27.614Z,0
2017-11-11T00:02:28.319Z,0
2017-11-11T00:03:28.650Z,0
2017-11-11T00:04:28.333Z,0
2017-11-11T00:05:27.931Z,0
2017-11-11T00:06:27.698Z,0
2017-11-11T00:07:42.414Z,0
2017-11-11T00:08:27.475Z,0
2017-11-11T00:09:28.206Z,0
2017-11-11T00:10:27.487Z,0
2017-11-11T00:11:27.459Z,0
2017-11-11T00:12:28.170Z,0
2017-11-11T00:13:27.435Z,0
2017-11-11T00:14:27.384Z,0
2017-11-11T00:15:27.869Z,0
2017-11-11T00:16:27.012Z,0
2017-11-11T00:17:27.316Z,0
2017-11-11T00:18:27.867Z,0
2017-11-11T00:19:27.976Z,0
2017-11-11T00:20:27.872Z,0
2017-11-11T00:21:27.864Z,0
2017-11-11T00:22:27.569Z,0
2017-11-11T00:23:27.769Z,0
2017-11-11T00:24:27.548Z,0
2017-11-11T00:25:27.830Z,0
2017-11-11T00:26:27.647Z,0
2017-11-11T00:28:27.777Z,0
2017-11-11T00:29:26.757Z,0
2017-11-11T00:30:27.609Z,0
2017-11-11T00:31:27.756Z,0
2017-11-11T00:32:27.684Z,0
2017-11-11T00:33:27.319Z,0
2017-11-11T00:34:27.306Z,0
2017-11-11T00:35:26.955Z,0
2017-11-11T00:36:27.272Z,0
2017-11-11T00:37:27.583Z,0
2017-11-11T00:38:27.243Z,0
2017-11-11T00:39:27.550Z,0
2017-11-11T00:40:27.528Z,0
2017-11-11T00:41:26.495Z,0
2017-11-11T00:42:27.142Z,0
2017-11-11T00:43:27.525Z,0
2017-11-11T00:44:27.109Z,0
2017-11-11T00:45:26.759Z,0
2017-11-11T00:46:26.736Z,0
2017-11-11T00:47:27.079Z,0
2017-11-11T00:48:27.049Z,0
2017-11-11T00:49:27.356Z,0
2017-11-11T00:50:27.007Z,0
2017-11-11T00:51:27.310Z,0
2017-11-11T00:52:26.659Z,0
2017-11-11T00:53:26.924Z,0
2017-11-11T00:54:27.255Z,0
2017-11-11T00:55:26.691Z,0
2017-11-11T00:56:27.221Z,0
2017-11-11T00:57:26.638Z,0
2017-11-11T00:58:26.836Z,0
2017-11-11T00:59:26.477Z,0
2017-11-11T01:00:26.469Z,0
2017-11-11T01:01:27.111Z,0
2017-11-11T01:02:26.429Z,0
2017-11-11T01:03:26.113Z,0
2017-11-11T01:04:26.728Z,0
2017-11-11T01:05:26.356Z,0
2017-11-11T01:06:26.346Z,0
2017-11-11T01:07:26.999Z,0
2017-11-11T01:08:26.300Z,0
2017-11-11T01:09:26.652Z,0
2017-11-11T01:10:26.259Z,0
2017-11-11T01:11:26.913Z,0
2017-11-11T01:12:26.773Z,0
2017-11-11T01:13:26.540Z,0
2017-11-11T01:14:26.176Z,0
2017-11-11T01:15:26.841Z,0
2017-11-11T01:16:26.483Z,0
2017-11-11T01:17:26.456Z,0
2017-11-11T01:18:26.778Z,0
2017-11-11T01:19:26.722Z,0
2017-11-11T01:20:26.096Z,0
2017-11-11T01:21:26.408Z,0
2017-11-11T01:22:26.357Z,0
2017-11-11T01:23:26.334Z,0
2017-11-11T01:24:26.673Z,0
2017-11-11T01:25:26.303Z,0
2017-11-11T01:26:25.940Z,0
2017-11-11T01:27:26.262Z,0
2017-11-11T01:28:25.896Z,0
2017-11-11T01:29:26.565Z,0
2017-11-11T01:30:25.863Z,0
2017-11-11T01:31:26.184Z,0
2017-11-11T01:32:26.158Z,0
2017-11-11T01:33:26.483Z,0
2017-11-11T01:34:25.775Z,0
2017-11-11T01:35:26.088Z,0
2017-11-11T01:36:26.111Z,0
2017-11-11T01:37:26.059Z,0
2017-11-11T01:38:26.034Z,0
2017-11-11T01:39:26.388Z,0
2017-11-11T01:40:25.994Z,0
2017-11-11T01:41:25.635Z,0
2017-11-11T01:42:25.958Z,0
2017-11-11T01:43:25.937Z,0
2017-11-11T01:44:26.130Z,0
2017-11-11T01:45:25.556Z,0
2017-11-11T01:46:25.886Z,0
2017-11-11T01:47:25.857Z,0
2017-11-11T01:48:25.513Z,0
2017-11-11T01:49:25.818Z,0
2017-11-11T01:50:25.459Z,0
2017-11-11T01:51:25.823Z,0
2017-11-11T01:52:25.759Z,0
2017-11-11T01:53:25.735Z,0
2017-11-11T01:54:25.715Z,0
2017-11-11T01:55:25.366Z,0
2017-11-11T01:56:25.673Z,0
2017-11-11T01:57:25.659Z,0
2017-11-11T01:58:25.649Z,0
2017-11-11T01:59:25.624Z,0
2017-11-11T02:00:25.597Z,0
2017-11-11T02:01:25.574Z,0
2017-11-11T02:02:25.566Z,0
2017-11-11T02:03:25.197Z,0
2017-11-11T02:04:25.522Z,0
2017-11-11T02:05:25.860Z,0
2017-11-11T02:06:25.486Z,0
2017-11-11T02:07:25.457Z,0
2017-11-11T02:08:25.769Z,0
2017-11-11T02:09:25.080Z,0
2017-11-11T02:10:25.732Z,0
2017-11-11T02:11:25.373Z,0
2017-11-11T02:12:25.359Z,0
2017-11-11T02:13:24.673Z,0
2017-11-11T02:14:25.652Z,0
2017-11-11T02:15:25.303Z,0
2017-11-11T02:16:25.617Z,0
2017-11-11T02:17:24.916Z,0
2017-11-11T02:18:24.902Z,0
2017-11-11T02:19:25.555Z,0
2017-11-11T02:20:25.543Z,0
2017-11-11T02:21:24.849Z,0
2017-11-11T02:22:25.156Z,0
2017-11-11T02:23:25.509Z,0
2017-11-11T02:24:25.118Z,0
2017-11-11T02:25:24.761Z,0
2017-11-11T02:26:25.423Z,0
2017-11-11T02:27:24.393Z,0
2017-11-11T02:28:25.042Z,0
2017-11-11T02:29:24.683Z,0
2017-11-11T02:30:25.334Z,0
2017-11-11T02:31:25.323Z,0
2017-11-11T02:32:24.954Z,0
2017-11-11T02:33:24.605Z,0
2017-11-11T02:34:24.912Z,0
2017-11-11T02:35:24.925Z,0
2017-11-11T02:36:24.879Z,0
2017-11-11T02:37:25.203Z,0
2017-11-11T02:38:24.841Z,0
2017-11-11T02:39:24.815Z,0
2017-11-11T02:40:24.808Z,0
2017-11-11T02:41:24.776Z,0
2017-11-11T02:42:24.623Z,0
2017-11-11T02:43:25.065Z,0
2017-11-11T02:44:24.715Z,0
2017-11-11T02:45:24.694Z,0
2017-11-11T02:46:25.030Z,0
2017-11-11T02:47:24.657Z,0
2017-11-11T02:48:24.660Z,0
2017-11-11T02:49:24.278Z,0
2017-11-11T02:50:24.254Z,0
2017-11-11T02:51:24.583Z,0
2017-11-11T02:52:24.611Z,0
2017-11-11T02:53:24.870Z,0
2017-11-11T02:54:24.514Z,0
2017-11-11T02:55:24.162Z,0
2017-11-11T02:56:24.154Z,0
2017-11-11T02:57:24.860Z,0
2017-11-11T02:58:24.100Z,0
2017-11-11T02:59:24.075Z,0
2017-11-11T03:00:24.422Z,0
2017-11-11T03:01:24.733Z,0
2017-11-11T03:02:24.355Z,0
2017-11-11T03:03:24.671Z,0
2017-11-11T03:04:23.985Z,0
2017-11-11T03:05:24.289Z,0
2017-11-11T03:06:23.933Z,0
2017-11-11T03:07:23.927Z,0
2017-11-11T03:08:24.564Z,0
2017-11-11T03:09:24.220Z,0
2017-11-11T03:10:23.853Z,0
2017-11-11T03:11:23.836Z,0
2017-11-11T03:12:24.161Z,0
2017-11-11T03:13:23.794Z,0
2017-11-11T03:14:23.449Z,0
2017-11-11T03:15:24.097Z,0
2017-11-11T03:16:24.072Z,0
2017-11-11T03:17:23.721Z,0
2017-11-11T03:18:24.028Z,0
2017-11-11T03:19:24.357Z,0
2017-11-11T03:20:23.655Z,0
2017-11-11T03:21:23.638Z,0
2017-11-11T03:22:24.274Z,0
2017-11-11T03:23:23.648Z,0
2017-11-11T03:24:23.574Z,0
2017-11-11T03:25:23.549Z,0
2017-11-11T03:26:23.895Z,0
2017-11-11T03:27:23.845Z,0
2017-11-11T03:28:23.829Z,0
2017-11-11T03:29:23.816Z,0
2017-11-11T03:30:23.805Z,0
2017-11-11T03:31:24.146Z,0
2017-11-11T03:32:23.081Z,0
2017-11-11T03:33:23.388Z,0
2017-11-11T03:34:23.695Z,0
2017-11-11T03:35:23.685Z,0
2017-11-11T03:36:23.325Z,0
2017-11-11T03:37:24.001Z,0
2017-11-11T03:38:23.636Z,0
2017-11-11T03:39:23.937Z,0
2017-11-11T03:40:23.594Z,0
2017-11-11T03:41:23.559Z,0
2017-11-11T03:42:23.554Z,0
2017-11-11T03:43:23.917Z,0
2017-11-11T03:44:23.499Z,0
2017-11-11T03:45:23.144Z,0
2017-11-11T03:46:23.803Z,0
2017-11-11T03:47:23.436Z,0
2017-11-11T03:48:23.078Z,0
2017-11-11T03:49:23.732Z,0
2017-11-11T03:50:23.592Z,0
2017-11-11T03:51:23.362Z,0
2017-11-11T03:52:22.676Z,0
2017-11-11T03:53:22.993Z,0
2017-11-11T03:54:23.307Z,0
2017-11-11T03:55:22.981Z,0
2017-11-11T03:56:22.586Z,0
2017-11-11T03:57:23.261Z,0
2017-11-11T03:58:23.214Z,0
2017-11-11T03:59:23.537Z,0
2017-11-11T04:00:23.173Z,0
2017-11-11T04:01:23.152Z,0
2017-11-11T04:02:23.466Z,0
2017-11-11T04:03:23.443Z,0
2017-11-11T04:04:22.753Z,0
2017-11-11T04:05:23.069Z,0
2017-11-11T04:06:23.382Z,0
2017-11-11T04:07:23.021Z,0
2017-11-11T04:08:23.010Z,0
2017-11-11T04:09:22.656Z,0
2017-11-11T04:10:22.967Z,0
2017-11-11T04:11:22.620Z,0
2017-11-11T04:12:22.933Z,0
2017-11-11T04:13:22.569Z,0
2017-11-11T04:14:22.890Z,0
2017-11-11T04:15:22.194Z,0
2017-11-11T04:16:22.508Z,0
2017-11-11T04:17:22.493Z,0
2017-11-11T04:18:22.819Z,0
2017-11-11T04:19:22.788Z,0
2017-11-11T04:20:22.771Z,0
2017-11-11T04:21:22.740Z,0
2017-11-11T04:22:23.068Z,0
2017-11-11T04:23:22.372Z,0
2017-11-11T04:24:23.016Z,0
2017-11-11T04:25:22.678Z,0
2017-11-11T04:26:22.643Z,0
2017-11-11T04:27:22.971Z,0
2017-11-11T04:28:22.268Z,0
2017-11-11T04:29:22.296Z,0
2017-11-11T04:30:22.906Z,0
2017-11-11T04:31:22.213Z,0
2017-11-11T04:32:22.542Z,0
2017-11-11T04:33:22.516Z,0
2017-11-11T04:34:22.152Z,0
2017-11-11T04:35:22.474Z,0
2017-11-11T04:36:22.109Z,0
2017-11-11T04:37:22.430Z,0
2017-11-11T04:38:22.753Z,0
2017-11-11T04:39:22.457Z,0
2017-11-11T04:40:22.030Z,0
2017-11-11T04:41:22.342Z,0
2017-11-11T04:42:21.990Z,0
2017-11-11T04:43:22.301Z,0
2017-11-11T04:44:22.618Z,0
2017-11-11T04:45:22.268Z,0
2017-11-11T04:46:22.607Z,0
2017-11-11T04:47:22.226Z,0
2017-11-11T04:48:22.202Z,0
2017-11-11T04:49:22.524Z,0
2017-11-11T04:50:21.820Z,0
2017-11-11T04:51:22.476Z,0
2017-11-11T04:52:22.469Z,0
2017-11-11T04:53:21.764Z,0
2017-11-11T04:54:21.413Z,0
2017-11-11T04:55:22.066Z,0
2017-11-11T04:56:21.712Z,0
2017-11-11T04:57:21.681Z,0
2017-11-11T04:58:22.003Z,0
2017-11-11T04:59:21.667Z,0
2017-11-11T05:00:22.295Z,0
2017-11-11T05:01:21.929Z,0
2017-11-11T05:02:22.252Z,0
2017-11-11T05:03:21.900Z,0
2017-11-11T05:04:22.204Z,0
2017-11-11T05:05:21.851Z,0
2017-11-11T05:06:22.174Z,0
2017-11-11T05:07:21.484Z,0
2017-11-11T05:08:22.125Z,0
2017-11-11T05:09:21.766Z,0
2017-11-11T05:10:22.086Z,0
2017-11-11T05:11:21.750Z,0
2017-11-11T05:12:21.377Z,0
2017-11-11T05:13:21.731Z,0
2017-11-11T05:14:21.334Z,0
2017-11-11T05:15:22.033Z,0
2017-11-11T05:16:21.629Z,0
2017-11-11T05:17:21.605Z,0
2017-11-11T05:18:21.593Z,0
2017-11-11T05:19:21.902Z,0
2017-11-11T05:20:21.881Z,0
2017-11-11T05:21:21.545Z,0
2017-11-11T05:22:21.183Z,0
2017-11-11T05:23:21.489Z,0
2017-11-11T05:24:21.461Z,0
2017-11-11T05:25:21.444Z,0
2017-11-11T05:26:21.422Z,0
2017-11-11T05:27:21.401Z,0
2017-11-11T05:28:21.416Z,0
2017-11-11T05:29:21.357Z,0
2017-11-11T05:30:21.703Z,0
2017-11-11T05:31:20.988Z,0
2017-11-11T05:32:20.966Z,0
2017-11-11T05:33:20.605Z,0
2017-11-11T05:34:21.600Z,0
2017-11-11T05:35:21.250Z,0
2017-11-11T05:36:21.548Z,0
2017-11-11T05:37:20.856Z,0
2017-11-11T05:38:21.520Z,0
2017-11-11T05:39:21.158Z,0
2017-11-11T05:40:20.794Z,0
2017-11-11T05:41:20.828Z,0
2017-11-11T05:42:21.098Z,0
2017-11-11T05:43:20.750Z,0
2017-11-11T05:44:21.068Z,0
2017-11-11T05:45:20.691Z,0
2017-11-11T05:46:21.029Z,0
2017-11-11T05:47:20.997Z,0
2017-11-11T05:48:20.967Z,0
2017-11-11T05:49:20.957Z,0
2017-11-11T05:50:21.154Z,0
2017-11-11T05:51:20.569Z,0
2017-11-11T05:52:21.088Z,0
2017-11-11T05:53:20.889Z,0
2017-11-11T05:54:20.546Z,0
2017-11-11T05:55:20.830Z,0
2017-11-11T05:56:21.015Z,0
2017-11-11T05:57:20.454Z,0
2017-11-11T05:58:20.430Z,0
2017-11-11T05:59:20.754Z,0
2017-11-11T06:00:20.734Z,0
2017-11-11T06:01:20.706Z,0
2017-11-11T06:02:20.705Z,0
2017-11-11T06:03:20.675Z,0
2017-11-11T06:04:20.652Z,0
2017-11-11T06:05:20.626Z,0
2017-11-11T06:06:20.603Z,0
2017-11-11T06:07:20.842Z,0
2017-11-11T06:08:20.564Z,0
2017-11-11T06:09:20.540Z,4
2017-11-11T06:10:20.189Z,0
2017-11-11T06:11:20.508Z,4
2017-11-11T06:12:20.478Z,0
2017-11-11T06:13:20.121Z,0
2017-11-11T06:14:20.470Z,4
2017-11-11T06:15:19.752Z,0
2017-11-11T06:16:20.737Z,4
2017-11-11T06:17:20.059Z,4
2017-11-11T06:18:20.375Z,4
2017-11-11T06:19:20.346Z,4
2017-11-11T06:20:20.342Z,8
2017-11-11T06:21:20.297Z,4
2017-11-11T06:22:20.366Z,8
2017-11-11T06:23:20.266Z,8
2017-11-11T06:24:20.576Z,8
2017-11-11T06:25:20.564Z,12
2017-11-11T06:26:19.857Z,12
2017-11-11T06:27:20.525Z,20
2017-11-11T06:28:19.829Z,24
2017-11-11T06:29:19.822Z,24
2017-11-11T06:30:20.457Z,20
2017-11-11T06:31:20.436Z,24
2017-11-11T06:32:20.450Z,32
2017-11-11T06:33:19.731Z,40
2017-11-11T06:34:20.040Z,48
2017-11-11T06:35:19.679Z,60
2017-11-11T06:36:20.016Z,72
2017-11-11T06:37:19.995Z,80
2017-11-11T06:38:19.623Z,88
2017-11-11T06:39:19.955Z,96
2017-11-11T06:40:19.633Z,100
2017-11-11T06:41:19.892Z,112
2017-11-11T06:42:20.262Z,116
2017-11-11T06:43:19.856Z,140
2017-11-11T06:44:19.512Z,160
2017-11-11T06:45:19.756Z,176
2017-11-11T06:46:19.795Z,184
2017-11-11T06:47:19.789Z,192
2017-11-11T06:48:19.787Z,184
2017-11-11T06:49:20.098Z,160
2017-11-11T06:50:20.068Z,148
2017-11-11T06:51:19.030Z,148
2017-11-11T06:52:19.399Z,156
2017-11-11T06:53:19.332Z,196
2017-11-11T06:54:18.968Z,228
2017-11-11T06:55:19.969Z,244
2017-11-11T06:56:19.934Z,260
2017-11-11T06:57:19.576Z,288
2017-11-11T06:58:19.896Z,312
2017-11-11T06:59:19.878Z,324
2017-11-11T07:00:19.181Z,340
2017-11-11T07:01:19.829Z,352
2017-11-11T07:02:19.488Z,364
2017-11-11T07:03:19.813Z,380
2017-11-11T07:04:19.790Z,416
2017-11-11T07:05:19.425Z,456
2017-11-11T07:06:19.737Z,496
2017-11-11T07:07:19.380Z,516
2017-11-11T07:08:19.573Z,524
2017-11-11T07:09:19.357Z,504
2017-11-11T07:10:19.654Z,472
2017-11-11T07:11:18.995Z,444
2017-11-11T07:12:18.948Z,420
2017-11-11T07:13:19.265Z,416
2017-11-11T07:14:18.902Z,436
2017-11-11T07:15:18.913Z,468
2017-11-11T07:16:19.542Z,492
2017-11-11T07:17:18.841Z,496
2017-11-11T07:18:19.412Z,488
2017-11-11T07:19:18.798Z,476
2017-11-11T07:20:18.790Z,464
2017-11-11T07:21:18.763Z,448
2017-11-11T07:22:19.086Z,432
2017-11-11T07:23:18.782Z,424
2017-11-11T07:24:19.028Z,416
2017-11-11T07:25:19.022Z,408
2017-11-11T07:26:19.003Z,420
2017-11-11T07:27:18.986Z,440
2017-11-11T07:28:18.679Z,444
2017-11-11T07:29:19.273Z,452
2017-11-11T07:30:19.257Z,484
2017-11-11T07:31:19.240Z,528
2017-11-11T07:32:18.540Z,580
2017-11-11T07:33:18.576Z,620
2017-11-11T07:34:18.839Z,672
2017-11-11T07:35:18.488Z,780
2017-11-11T07:36:18.803Z,872
2017-11-11T07:37:18.788Z,924
2017-11-11T07:38:18.756Z,972
2017-11-11T07:39:18.409Z,912
2017-11-11T07:40:18.399Z,936
2017-11-11T07:41:18.367Z,992
2017-11-11T07:42:18.694Z,1136
2017-11-11T07:43:18.661Z,1140
2017-11-11T07:44:18.982Z,1060
2017-11-11T07:45:18.622Z,968
2017-11-11T07:46:18.609Z,872
2017-11-11T07:47:18.576Z,812
2017-11-11T07:48:18.904Z,660
2017-11-11T07:49:18.555Z,628
2017-11-11T07:50:18.741Z,656
2017-11-11T07:51:18.178Z,712
2017-11-11T07:52:18.827Z,724
2017-11-11T07:53:18.473Z,704
2017-11-11T07:54:18.493Z,708
2017-11-11T07:55:18.081Z,780
2017-11-11T07:56:18.073Z,908
2017-11-11T07:57:18.390Z,944
2017-11-11T07:58:18.027Z,1016
2017-11-11T07:59:18.401Z,1092
2017-11-11T08:00:18.664Z,1072
2017-11-11T08:01:18.303Z,1104
2017-11-11T08:02:18.288Z,1128
2017-11-11T08:03:18.598Z,1124
2017-11-11T08:04:18.634Z,1096
2017-11-11T08:05:18.562Z,940
2017-11-11T08:06:17.867Z,960
2017-11-11T08:07:18.184Z,1252
2017-11-11T08:08:18.197Z,1308
2017-11-11T08:09:18.529Z,1248
2017-11-11T08:10:18.472Z,1192
2017-11-11T08:11:18.100Z,1188
2017-11-11T08:12:18.425Z,1256
2017-11-11T08:13:18.066Z,1272
2017-11-11T08:14:18.102Z,1196
2017-11-11T08:15:17.700Z,1188
2017-11-11T08:16:18.346Z,1304
2017-11-11T08:17:17.993Z,1432
2017-11-11T08:18:17.634Z,1408
2017-11-11T08:19:18.009Z,1440
2017-11-11T08:20:18.271Z,1632
2017-11-11T08:21:17.908Z,1648
2017-11-11T08:22:17.561Z,1500
2017-11-11T08:23:17.876Z,1384
2017-11-11T08:24:17.901Z,1372
2017-11-11T08:25:18.165Z,1628
2017-11-11T08:26:17.815Z,1636
2017-11-11T08:27:17.460Z,1268
2017-11-11T08:28:17.767Z,1052
2017-11-11T08:29:17.812Z,836
2017-11-11T08:30:17.401Z,800
2017-11-11T08:31:17.719Z,900
2017-11-11T08:32:17.366Z,1020
2017-11-11T08:33:17.337Z,1140
2017-11-11T08:34:17.315Z,1464
2017-11-11T08:35:17.652Z,1652
2017-11-11T08:36:17.947Z,1856
2017-11-11T08:37:17.594Z,1852
2017-11-11T08:38:17.237Z,1764
2017-11-11T08:39:17.562Z,1712
2017-11-11T08:40:17.542Z,2064
2017-11-11T08:41:17.188Z,2372
2017-11-11T08:42:17.167Z,2780
2017-11-11T08:43:17.142Z,2776
2017-11-11T08:44:17.465Z,2480
2017-11-11T08:45:17.447Z,2260
2017-11-11T08:46:16.742Z,2032
2017-11-11T08:47:17.745Z,2036
2017-11-11T08:48:17.729Z,2136
2017-11-11T08:49:17.699Z,1960
2017-11-11T08:50:17.001Z,1932
2017-11-11T08:51:17.668Z,1824
2017-11-11T08:52:17.300Z,1852
2017-11-11T08:53:17.273Z,1704
2017-11-11T08:54:17.254Z,1592
2017-11-11T08:55:17.624Z,1384
2017-11-11T08:56:16.886Z,1504
2017-11-11T08:57:16.869Z,1812
2017-11-11T08:58:17.179Z,1836
2017-11-11T08:59:17.156Z,2028
2017-11-11T09:00:17.535Z,2080
2017-11-11T09:01:17.128Z,1812
2017-11-11T09:02:16.440Z,2076
2017-11-11T09:03:17.423Z,2080
2017-11-11T09:04:16.384Z,2152
2017-11-11T09:05:17.093Z,2184
2017-11-11T09:06:16.353Z,1656
2017-11-11T09:07:17.357Z,1388
2017-11-11T09:08:16.333Z,1496
2017-11-11T09:09:16.961Z,1660
2017-11-11T09:10:17.217Z,2088
2017-11-11T09:11:16.930Z,1768
2017-11-11T09:12:16.233Z,1216
2017-11-11T09:13:16.903Z,1092
2017-11-11T09:14:16.862Z,1364
2017-11-11T09:15:16.223Z,1320
2017-11-11T09:16:17.189Z,1236
2017-11-11T09:17:16.477Z,992
2017-11-11T09:18:16.474Z,976
2017-11-11T09:19:16.756Z,1500
2017-11-11T09:20:16.798Z,1296
2017-11-11T09:21:16.729Z,1580
2017-11-11T09:22:16.702Z,1892
2017-11-11T09:23:16.699Z,1664
2017-11-11T09:24:16.714Z,1772
2017-11-11T09:25:16.641Z,1500
2017-11-11T09:26:16.623Z,1384
2017-11-11T09:27:16.600Z,1880
2017-11-11T09:28:16.249Z,1708
2017-11-11T09:29:16.570Z,1556
2017-11-11T09:30:16.551Z,1140
2017-11-11T09:31:16.243Z,1088
2017-11-11T09:32:16.516Z,756
2017-11-11T09:33:16.478Z,832
2017-11-11T09:34:16.461Z,792
2017-11-11T09:35:15.769Z,916
2017-11-11T09:36:15.805Z,1088
2017-11-11T09:37:16.073Z,1276
2017-11-11T09:38:16.051Z,1120
2017-11-11T09:39:16.369Z,956
2017-11-11T09:40:16.682Z,900
2017-11-11T09:41:16.378Z,968
2017-11-11T09:42:15.971Z,1020
2017-11-11T09:43:16.621Z,872
2017-11-11T09:44:16.274Z,1096
2017-11-11T09:45:16.578Z,1244
2017-11-11T09:46:15.950Z,1228
2017-11-11T09:47:16.212Z,1080
2017-11-11T09:48:16.534Z,1096
2017-11-11T09:49:16.503Z,1104
2017-11-11T09:50:16.691Z,1112
2017-11-11T09:51:16.175Z,1548
2017-11-11T09:52:16.117Z,1704
2017-11-11T09:53:15.754Z,1364
2017-11-11T09:54:15.735Z,1756
2017-11-11T09:55:16.046Z,1480
2017-11-11T09:56:16.082Z,1372
2017-11-11T09:57:16.355Z,2172
2017-11-11T09:58:15.653Z,2192
2017-11-11T09:59:15.631Z,1516
2017-11-11T10:00:16.297Z,1444
2017-11-11T10:01:16.318Z,1476
2017-11-11T10:02:15.574Z,1436
2017-11-11T10:03:15.553Z,1436
2017-11-11T10:04:16.206Z,1804
2017-11-11T10:05:16.193Z,1728
2017-11-11T10:06:16.004Z,1184
2017-11-11T10:07:15.807Z,1440
2017-11-11T10:08:15.454Z,1480
2017-11-11T10:09:15.434Z,1696
2017-11-11T10:10:15.757Z,1944
2017-11-11T10:11:15.400Z,1808
2017-11-11T10:12:15.743Z,1696
2017-11-11T10:13:16.029Z,2016
2017-11-11T10:14:15.678Z,2400
2017-11-11T10:15:15.313Z,2788
2017-11-11T10:16:15.637Z,3200
2017-11-11T10:17:15.274Z,3552
2017-11-11T10:18:15.258Z,4032
2017-11-11T10:19:15.569Z,3440
2017-11-11T10:20:15.215Z,3096
2017-11-11T10:21:15.872Z,3260
2017-11-11T10:22:15.234Z,3088
2017-11-11T10:23:15.505Z,2400
2017-11-11T10:24:15.481Z,1956
2017-11-11T10:25:15.491Z,1580
2017-11-11T10:26:15.436Z,1552
2017-11-11T10:27:15.134Z,1548
2017-11-11T10:28:15.397Z,1684
2017-11-11T10:29:15.035Z,1824
2017-11-11T10:30:15.021Z,2364
2017-11-11T10:31:15.684Z,2468
2017-11-11T10:32:15.037Z,2308
2017-11-11T10:33:14.629Z,1984
2017-11-11T10:34:15.290Z,1472
2017-11-11T10:35:15.599Z,1476
2017-11-11T10:36:15.249Z,1596
2017-11-11T10:37:15.630Z,1844
2017-11-11T10:38:14.876Z,2032
2017-11-11T10:39:15.529Z,2168
2017-11-11T10:40:14.830Z,2112
2017-11-11T10:41:14.831Z,1948
2017-11-11T10:42:15.180Z,1840
2017-11-11T10:43:14.790Z,1816
2017-11-11T10:44:15.092Z,1952
2017-11-11T10:45:14.399Z,2160
2017-11-11T10:46:15.046Z,2340
2017-11-11T10:47:15.082Z,2680
2017-11-11T10:48:15.009Z,2648
2017-11-11T10:49:14.990Z,3236
2017-11-11T10:50:14.976Z,3700
2017-11-11T10:51:15.318Z,4176
2017-11-11T10:52:14.644Z,4616
2017-11-11T10:53:14.921Z,4212
2017-11-11T10:54:14.896Z,3816
2017-11-11T10:55:14.536Z,3424
2017-11-11T10:56:14.863Z,3316
2017-11-11T10:57:14.890Z,3408
2017-11-11T10:58:15.157Z,3448
2017-11-11T10:59:15.145Z,3204
2017-11-11T11:00:14.784Z,3672
2017-11-11T11:01:14.421Z,4144
2017-11-11T11:02:14.412Z,4272
2017-11-11T11:03:14.391Z,4508
2017-11-11T11:04:14.719Z,4428
2017-11-11T11:05:14.686Z,4304
2017-11-11T11:06:14.672Z,4432
2017-11-11T11:07:14.317Z,4896
2017-11-11T11:08:14.674Z,5116
2017-11-11T11:09:14.952Z,4844
2017-11-11T11:10:14.596Z,4424
2017-11-11T11:11:14.584Z,4188
2017-11-11T11:12:14.562Z,4368
2017-11-11T11:13:14.592Z,4208
2017-11-11T11:14:14.516Z,4444
2017-11-11T11:15:14.166Z,4700
2017-11-11T11:16:14.478Z,4388
2017-11-11T11:17:14.138Z,4220
2017-11-11T11:18:14.161Z,4288
2017-11-11T11:19:14.089Z,3844
2017-11-11T11:20:14.415Z,3728
2017-11-11T11:21:14.729Z,3692
2017-11-11T11:22:14.366Z,3756
2017-11-11T11:23:14.737Z,3028
2017-11-11T11:24:14.334Z,3532
2017-11-11T11:25:14.302Z,3188
2017-11-11T11:26:14.294Z,3060
2017-11-11T11:27:14.272Z,3220
2017-11-11T11:28:14.320Z,4040
2017-11-11T11:29:13.567Z,4460
2017-11-11T11:30:14.225Z,4484
2017-11-11T11:31:13.565Z,4324
2017-11-11T11:32:14.205Z,4296
2017-11-11T11:33:13.884Z,2948
2017-11-11T11:34:14.160Z,3088
2017-11-11T11:35:14.333Z,3452
2017-11-11T11:36:13.765Z,3316
2017-11-11T11:37:14.104Z,3576
2017-11-11T11:38:13.798Z,3464
2017-11-11T11:39:14.048Z,2752
2017-11-11T11:40:13.706Z,2636
2017-11-11T11:41:14.368Z,2720
2017-11-11T11:42:14.334Z,2340
2017-11-11T11:43:14.058Z,2156
2017-11-11T11:44:13.964Z,2128
2017-11-11T11:45:14.291Z,2076
2017-11-11T11:46:13.922Z,1972
2017-11-11T11:47:13.563Z,2260
2017-11-11T11:48:13.959Z,1960
2017-11-11T11:49:13.861Z,1636
2017-11-11T11:50:14.249Z,1504
2017-11-11T11:51:14.037Z,1608
2017-11-11T11:52:13.820Z,1476
2017-11-11T11:53:13.461Z,1472
2017-11-11T11:54:13.435Z,1548
2017-11-11T11:55:14.104Z,1480
2017-11-11T11:56:14.080Z,1296
2017-11-11T11:57:14.058Z,1360
2017-11-11T11:58:13.722Z,1632
2017-11-11T11:59:13.339Z,1356
2017-11-11T12:00:14.018Z,1208
2017-11-11T12:01:13.648Z,1060
2017-11-11T12:02:13.620Z,1272
2017-11-11T12:03:14.150Z,1308
2017-11-11T12:04:13.592Z,1292
2017-11-11T12:05:13.575Z,1560
2017-11-11T12:06:13.558Z,1720
2017-11-11T12:07:13.530Z,1288
2017-11-11T12:08:13.516Z,1444
2017-11-11T12:09:13.880Z,1592
2017-11-11T12:10:13.133Z,1668
2017-11-11T12:11:13.122Z,1760
2017-11-11T12:12:13.096Z,2068
2017-11-11T12:13:13.435Z,2508
2017-11-11T12:14:13.126Z,2248
2017-11-11T12:15:13.045Z,2552
2017-11-11T12:16:13.041Z,2548
2017-11-11T12:17:13.683Z,2520
2017-11-11T12:18:13.200Z,2084
2017-11-11T12:19:13.902Z,1500
2017-11-11T12:20:13.307Z,1548
2017-11-11T12:21:13.285Z,1640
2017-11-11T12:22:13.597Z,1768
2017-11-11T12:23:12.888Z,1688
2017-11-11T12:24:13.327Z,1480
2017-11-11T12:25:13.071Z,1840
2017-11-11T12:26:12.848Z,1732
2017-11-11T12:27:13.039Z,1700
2017-11-11T12:28:13.213Z,1408
2017-11-11T12:29:13.211Z,1424
2017-11-11T12:30:13.433Z,1900
2017-11-11T12:31:13.084Z,1916
2017-11-11T12:32:13.062Z,1448
2017-11-11T12:33:13.373Z,1428
2017-11-11T12:34:12.792Z,1264
2017-11-11T12:35:12.701Z,1180
2017-11-11T12:36:13.204Z,1276
2017-11-11T12:37:13.324Z,1212
2017-11-11T12:38:12.965Z,1196
2017-11-11T12:39:12.996Z,1296
2017-11-11T12:40:12.577Z,1456
2017-11-11T12:41:12.908Z,1372
2017-11-11T12:42:12.552Z,1924
2017-11-11T12:43:13.186Z,1912
2017-11-11T12:44:12.945Z,1932
2017-11-11T12:45:12.489Z,1808
2017-11-11T12:46:12.470Z,1436
2017-11-11T12:47:13.005Z,1512
2017-11-11T12:48:13.113Z,1472
2017-11-11T12:49:13.209Z,1068
2017-11-11T12:50:12.758Z,912
2017-11-11T12:51:12.703Z,1000
2017-11-11T12:52:12.687Z,1024
2017-11-11T12:53:12.667Z,988
2017-11-11T12:54:12.332Z,1176
2017-11-11T12:55:12.634Z,1288
2017-11-11T12:56:12.623Z,1336
2017-11-11T12:57:12.941Z,1560
2017-11-11T12:58:12.577Z,1372
2017-11-11T12:59:11.895Z,1564
2017-11-11T13:00:12.558Z,2000
2017-11-11T13:01:11.855Z,1932
2017-11-11T13:02:12.497Z,1844
2017-11-11T13:03:12.146Z,1940
2017-11-11T13:04:12.501Z,1688
2017-11-11T13:05:12.442Z,1548
2017-11-11T13:06:12.102Z,1488
2017-11-11T13:07:12.079Z,1132
2017-11-11T13:08:12.402Z,1080
2017-11-11T13:09:12.048Z,1232
2017-11-11T13:10:12.341Z,1112
2017-11-11T13:11:12.006Z,1200
2017-11-11T13:12:12.364Z,1692
2017-11-11T13:13:11.955Z,1600
2017-11-11T13:14:11.604Z,1740
2017-11-11T13:15:11.974Z,1904
2017-11-11T13:16:12.247Z,2116
2017-11-11T13:17:12.232Z,2156
2017-11-11T13:18:12.193Z,2564
2017-11-11T13:19:12.194Z,2568
2017-11-11T13:20:11.900Z,2192
2017-11-11T13:21:12.476Z,2048
2017-11-11T13:22:11.803Z,2084
2017-11-11T13:23:12.123Z,2096
2017-11-11T13:24:12.429Z,2104
2017-11-11T13:25:12.462Z,2584
2017-11-11T13:26:12.406Z,2752
2017-11-11T13:27:12.373Z,2532
2017-11-11T13:28:12.016Z,2396
2017-11-11T13:29:11.663Z,2368
2017-11-11T13:30:12.023Z,2496
2017-11-11T13:31:11.618Z,2256
2017-11-11T13:32:11.935Z,2920
2017-11-11T13:33:11.929Z,2388
2017-11-11T13:34:12.253Z,1952
2017-11-11T13:35:11.608Z,2096
2017-11-11T13:36:11.526Z,1980
2017-11-11T13:37:12.209Z,2348
2017-11-11T13:38:11.838Z,2468
2017-11-11T13:39:11.136Z,2492
2017-11-11T13:40:11.451Z,2232
2017-11-11T13:41:11.766Z,2936
2017-11-11T13:42:11.418Z,3516
2017-11-11T13:43:11.399Z,2848
2017-11-11T13:44:11.399Z,2644
2017-11-11T13:45:11.698Z,2240
2017-11-11T13:46:12.022Z,2788
2017-11-11T13:47:11.994Z,2484
2017-11-11T13:48:11.646Z,1852
2017-11-11T13:49:11.956Z,1688
2017-11-11T13:50:11.603Z,1584
2017-11-11T13:51:11.798Z,1768
2017-11-11T13:52:11.564Z,1712
2017-11-11T13:53:11.567Z,2196
2017-11-11T13:54:11.548Z,1940
2017-11-11T13:55:11.194Z,1504
2017-11-11T13:56:11.173Z,1312
2017-11-11T13:57:11.813Z,1492
2017-11-11T13:58:11.451Z,1692
2017-11-11T13:59:11.446Z,1464
2017-11-11T14:00:11.093Z,1264
2017-11-11T14:01:11.070Z,1820